Time;durP1;ratioP1;P1;durP2;ratioP2;P2;SDS_P1;SDS_P2;PMS_P1;PMS_P2;Temp;Humidity;BMP_temperature;BMP_pressure;BME280_temperature;BME280_humidity;BME280_pressure;Samples;Min_cycle;Max_cycle;Signal;HPM_P1;HPM_P2
2023/02/18 00:01:33;;;;;;;;;3.00;1.33;;;;;;;;5026358;28;9134;-78
2023/02/18 00:04:01;;;;;;;;;1.00;1.00;;;;;;;;5041878;28;10027;-76
2023/02/18 00:06:30;;;;;;;;;2.00;2.00;;;;;;;;5025281;28;9137;-77
2023/02/18 00:09:00;;;;;;;;;2.00;2.00;;;;;;;;5040009;28;9992;-78
2023/02/18 00:11:31;;;;;;;;;2.00;2.00;;;;;;;;5024309;28;9013;-77
2023/02/18 00:14:01;;;;;;;;;2.67;2.67;;;;;;;;5048975;28;8989;-77
2023/02/18 00:16:30;;;;;;;;;2.00;2.00;;;;;;;;5050016;28;9193;-76
2023/02/18 00:18:58;;;;;;;;;2.00;2.00;;;;;;;;5042109;28;9077;-77
2023/02/18 00:21:26;;;;;;;;;1.67;1.67;;;;;;;;5043875;28;9042;-77
2023/02/18 00:23:54;;;;;;;;;2.00;2.00;;;;;;;;5042939;28;9012;-77
2023/02/18 00:26:22;;;;;;;;;1.00;1.00;;;;;;;;5009709;28;9087;-77
2023/02/18 00:28:51;;;;;;;;;4.00;2.00;;;;;;;;5041371;28;9014;-77
2023/02/18 00:31:21;;;;;;;;;2.00;2.00;;;;;;;;5038446;28;9133;-77
2023/02/18 00:33:49;;;;;;;;;2.00;2.00;;;;;;;;5040114;28;9096;-77
2023/02/18 00:36:18;;;;;;;;;1.00;1.00;;;;;;;;5041705;28;9014;-77
2023/02/18 00:38:46;;;;;;;;;1.67;1.67;;;;;;;;5037478;28;9109;-79
2023/02/18 00:41:15;;;;;;;;;1.00;1.00;;;;;;;;4999362;28;9111;-77
2023/02/18 00:43:42;;;;;;;;;1.33;1.33;;;;;;;;5037633;28;9088;-77
2023/02/18 00:46:12;;;;;;;;;1.00;1.00;;;;;;;;5020490;28;9739;-77
2023/02/18 00:48:40;;;;;;;;;1.00;1.00;;;;;;;;5030618;28;9146;-77
2023/02/18 00:51:08;;;;;;;;;1.00;1.00;;;;;;;;5046074;28;9084;-77
2023/02/18 00:53:38;;;;;;;;;1.00;1.00;;;;;;;;5028254;28;9039;-77
2023/02/18 00:56:06;;;;;;;;;0.33;0.33;;;;;;;;5045143;28;9217;-77
2023/02/18 00:58:34;;;;;;;;;1.00;1.00;;;;;;;;5043759;28;9181;-76
2023/02/18 01:01:01;;;;;;;;;1.00;1.00;;;;;;;;5005305;28;9142;-77
2023/02/18 01:03:30;;;;;;;;;2.00;2.00;;;;;;;;5044492;28;9227;-77
2023/02/18 01:05:58;;;;;;;;;1.00;1.00;;;;;;;;5046207;28;10014;-77
2023/02/18 01:08:25;;;;;;;;;1.67;1.67;;;;;;;;5029105;28;9111;-77
2023/02/18 01:10:55;;;;;;;;;1.00;1.00;;;;;;;;5023102;28;9873;-77
2023/02/18 01:13:23;;;;;;;;;1.00;1.00;;;;;;;;5048449;28;9239;-77
2023/02/18 01:15:51;;;;;;;;;2.00;1.00;;;;;;;;5043537;28;9173;-77
2023/02/18 01:18:19;;;;;;;;;1.00;1.00;;;;;;;;5040226;28;9201;-77
2023/02/18 01:20:48;;;;;;;;;0.00;0.00;;;;;;;;5043631;28;9182;-77
2023/02/18 01:23:17;;;;;;;;;2.00;2.00;;;;;;;;5044302;28;9164;-78
2023/02/18 01:25:45;;;;;;;;;0.67;0.67;;;;;;;;5024093;28;9252;-76
2023/02/18 01:28:14;;;;;;;;;0.67;0.67;;;;;;;;5027288;28;9246;-76
2023/02/18 01:30:41;;;;;;;;;0.00;0.00;;;;;;;;5022126;28;9030;-76
2023/02/18 01:33:10;;;;;;;;;0.00;0.00;;;;;;;;5019763;28;9463;-76
2023/02/18 01:35:39;;;;;;;;;0.00;0.00;;;;;;;;5041905;28;9008;-78
2023/02/18 01:38:08;;;;;;;;;0.00;0.00;;;;;;;;5021224;28;9362;-77
2023/02/18 01:40:36;;;;;;;;;0.00;0.00;;;;;;;;5038885;28;9245;-77
2023/02/18 01:43:04;;;;;;;;;0.00;0.00;;;;;;;;5021521;28;9238;-77
2023/02/18 01:45:58;;;;;;;;;2.00;0.00;;;;;;;;5023156;28;10186;-77
2023/02/18 01:48:28;;;;;;;;;0.00;0.00;;;;;;;;5019887;28;9317;-77
2023/02/18 01:51:00;;;;;;;;;0.00;0.00;;;;;;;;5038141;28;9182;-77
2023/02/18 01:53:31;;;;;;;;;0.00;0.00;;;;;;;;5038917;28;9243;-77
2023/02/18 01:56:01;;;;;;;;;0.00;0.00;;;;;;;;5041682;28;9340;-77
2023/02/18 01:58:29;;;;;;;;;2.00;0.00;;;;;;;;5023000;28;9196;-77
2023/02/18 02:00:56;;;;;;;;;0.67;0.67;;;;;;;;5037286;28;9291;-77
2023/02/18 02:03:23;;;;;;;;;0.00;0.00;;;;;;;;5034520;28;9262;-77
2023/02/18 02:05:51;;;;;;;;;0.00;0.00;;;;;;;;5035051;28;9169;-77
2023/02/18 02:08:18;;;;;;;;;0.00;0.00;;;;;;;;5006235;28;9280;-78
2023/02/18 02:10:59;;;;;;;;;1.00;1.00;;;;;;;;5038101;28;9267;-78
2023/02/18 02:13:33;;;;;;;;;0.00;0.00;;;;;;;;5019130;28;9269;-78
2023/02/18 02:16:06;;;;;;;;;1.00;1.00;;;;;;;;5020602;28;9179;-78
2023/02/18 02:18:44;;;;;;;;;0.00;0.00;;;;;;;;5018787;28;9174;-78
2023/02/18 02:21:50;;;;;;;;;1.00;1.00;;;;;;;;5035480;28;9191;-76
2023/02/18 02:24:59;;;;;;;;;0.00;0.00;;;;;;;;4977858;28;9722;-78
2023/02/18 02:27:36;;;;;;;;;0.00;0.00;;;;;;;;5012647;28;10383;-78
2023/02/18 02:30:38;;;;;;;;;0.00;0.00;;;;;;;;5036384;28;10211;-77
2023/02/18 02:33:38;;;;;;;;;1.00;1.00;;;;;;;;5019107;28;9249;-77
2023/02/18 02:36:13;;;;;;;;;0.00;0.00;;;;;;;;5037898;28;9331;-77
2023/02/18 02:38:48;;;;;;;;;0.00;0.00;;;;;;;;5037177;28;9424;-77
2023/02/18 02:41:28;;;;;;;;;1.00;1.00;;;;;;;;5021739;28;9267;-77
2023/02/18 02:44:06;;;;;;;;;0.67;0.67;;;;;;;;5038029;28;9488;-76
2023/02/18 02:46:39;;;;;;;;;1.00;1.00;;;;;;;;5036001;28;9585;-77
2023/02/18 02:49:13;;;;;;;;;1.00;1.00;;;;;;;;5019038;28;9495;-77
2023/02/18 02:51:47;;;;;;;;;3.25;2.00;;;;;;;;5019283;28;9503;-81
2023/02/18 02:54:18;;;;;;;;;2.00;2.00;;;;;;;;5017264;28;9383;-77
2023/02/18 02:56:46;;;;;;;;;1.00;1.00;;;;;;;;5038788;28;9494;-77
2023/02/18 02:59:16;;;;;;;;;2.75;1.25;;;;;;;;5043114;28;9547;-77
2023/02/18 03:01:58;;;;;;;;;1.00;1.00;;;;;;;;5036063;28;9404;-77
2023/02/18 03:05:01;;;;;;;;;1.50;1.00;;;;;;;;5035623;28;9486;-80
2023/02/18 03:07:59;;;;;;;;;1.75;1.75;;;;;;;;5042065;28;9482;-77
2023/02/18 03:10:36;;;;;;;;;1.00;1.00;;;;;;;;5029746;28;10335;-77
2023/02/18 03:13:10;;;;;;;;;1.00;1.00;;;;;;;;5019334;28;9363;-77
2023/02/18 03:15:48;;;;;;;;;0.33;0.33;;;;;;;;5040357;28;9320;-77
2023/02/18 03:18:19;;;;;;;;;1.00;1.00;;;;;;;;5035527;28;9331;-77
2023/02/18 03:20:52;;;;;;;;;1.00;0.00;;;;;;;;5036487;28;9510;-77
2023/02/18 03:23:25;;;;;;;;;0.00;0.00;;;;;;;;5037872;28;9503;-77
2023/02/18 03:25:54;;;;;;;;;0.00;0.00;;;;;;;;5039685;28;9514;-77
2023/02/18 03:28:23;;;;;;;;;1.00;1.00;;;;;;;;5038637;28;9410;-77
2023/02/18 03:30:53;;;;;;;;;0.00;0.00;;;;;;;;5036151;28;9359;-77
2023/02/18 03:33:26;;;;;;;;;0.00;0.00;;;;;;;;5020131;28;9393;-75
2023/02/18 03:35:54;;;;;;;;;0.75;0.75;;;;;;;;5022070;28;9408;-77
2023/02/18 03:38:26;;;;;;;;;0.00;0.00;;;;;;;;5040879;28;9470;-77
2023/02/18 03:40:54;;;;;;;;;1.00;1.00;;;;;;;;5043836;28;10048;-77
2023/02/18 03:43:21;;;;;;;;;0.00;0.00;;;;;;;;5047440;28;9505;-78
2023/02/18 03:45:49;;;;;;;;;0.00;0.00;;;;;;;;5024083;28;9417;-77
2023/02/18 03:48:16;;;;;;;;;0.00;0.00;;;;;;;;5039553;28;9401;-77
2023/02/18 03:50:44;;;;;;;;;0.00;0.00;;;;;;;;5044724;28;9340;-76
2023/02/18 03:53:11;;;;;;;;;0.00;0.00;;;;;;;;5022010;28;9406;-77
2023/02/18 03:55:41;;;;;;;;;0.00;0.00;;;;;;;;5045572;28;9347;-76
2023/02/18 03:58:08;;;;;;;;;0.00;0.00;;;;;;;;5022230;28;9334;-76
2023/02/18 04:00:36;;;;;;;;;0.00;0.00;;;;;;;;5040075;28;9331;-77
2023/02/18 04:03:04;;;;;;;;;0.00;0.00;;;;;;;;5037898;28;9358;-76
2023/02/18 04:05:31;;;;;;;;;0.00;0.00;;;;;;;;5022962;28;9307;-77
2023/02/18 04:08:00;;;;;;;;;0.33;0.00;;;;;;;;5037709;28;9319;-76
2023/02/18 04:10:27;;;;;;;;;0.00;0.00;;;;;;;;5022672;28;9201;-76
2023/02/18 04:12:57;;;;;;;;;0.00;0.00;;;;;;;;5024143;28;9187;-79
2023/02/18 04:15:24;;;;;;;;;0.00;0.00;;;;;;;;5006574;28;9837;-77
2023/02/18 04:17:52;;;;;;;;;0.00;0.00;;;;;;;;5042118;28;9328;-77
2023/02/18 04:20:21;;;;;;;;;0.00;0.00;;;;;;;;5025844;28;9259;-76
2023/02/18 04:22:48;;;;;;;;;0.00;0.00;;;;;;;;5044859;28;9549;-76
2023/02/18 04:25:17;;;;;;;;;0.00;0.00;;;;;;;;5043008;28;9380;-76
2023/02/18 04:27:44;;;;;;;;;0.00;0.00;;;;;;;;5027624;28;9299;-76
2023/02/18 04:30:14;;;;;;;;;0.00;0.00;;;;;;;;5041804;28;9479;-77
2023/02/18 04:32:41;;;;;;;;;0.00;0.00;;;;;;;;5040671;28;9339;-76
2023/02/18 04:35:09;;;;;;;;;0.00;0.00;;;;;;;;5042202;28;9379;-77
2023/02/18 04:37:36;;;;;;;;;0.00;0.00;;;;;;;;5039173;28;9388;-76
2023/02/18 04:40:05;;;;;;;;;0.00;0.00;;;;;;;;5043874;28;9324;-76
2023/02/18 04:42:32;;;;;;;;;1.00;0.00;;;;;;;;5023625;28;9253;-76
2023/02/18 04:44:59;;;;;;;;;0.00;0.00;;;;;;;;5050708;28;9190;-76
2023/02/18 04:47:29;;;;;;;;;0.00;0.00;;;;;;;;5037941;28;10234;-77
2023/02/18 04:49:56;;;;;;;;;0.00;0.00;;;;;;;;5025095;28;9335;-76
2023/02/18 04:52:23;;;;;;;;;0.00;0.00;;;;;;;;5042384;28;9463;-76
2023/02/18 04:54:51;;;;;;;;;0.00;0.00;;;;;;;;5040100;28;9415;-76
2023/02/18 04:57:18;;;;;;;;;0.00;0.00;;;;;;;;5025257;28;9401;-77
2023/02/18 04:59:46;;;;;;;;;0.00;0.00;;;;;;;;5045879;28;9408;-82
2023/02/18 05:02:13;;;;;;;;;0.00;0.00;;;;;;;;5012906;28;9412;-76
2023/02/18 05:04:42;;;;;;;;;0.00;0.00;;;;;;;;5042778;28;9571;-76
2023/02/18 05:07:10;;;;;;;;;0.00;0.00;;;;;;;;5046136;28;9678;-77
2023/02/18 05:09:37;;;;;;;;;0.00;0.00;;;;;;;;5048679;28;9535;-77
2023/02/18 05:12:05;;;;;;;;;0.00;0.00;;;;;;;;5040868;28;9470;-78
2023/02/18 05:14:32;;;;;;;;;0.00;0.00;;;;;;;;5045008;28;9411;-77
2023/02/18 05:17:00;;;;;;;;;0.00;0.00;;;;;;;;5044739;28;9411;-76
2023/02/18 05:19:27;;;;;;;;;0.00;0.00;;;;;;;;5024390;28;9521;-76
2023/02/18 05:21:56;;;;;;;;;0.00;0.00;;;;;;;;5044713;28;9475;-76
2023/02/18 05:24:25;;;;;;;;;0.00;0.00;;;;;;;;5045037;28;9575;-76
2023/02/18 05:26:52;;;;;;;;;0.00;0.00;;;;;;;;5040858;28;9515;-76
2023/02/18 05:29:19;;;;;;;;;0.00;0.00;;;;;;;;5045037;28;10190;-76
2023/02/18 05:31:47;;;;;;;;;0.00;0.00;;;;;;;;5023641;28;9430;-76
2023/02/18 05:34:14;;;;;;;;;0.00;0.00;;;;;;;;5043975;28;10286;-77
2023/02/18 05:36:42;;;;;;;;;0.00;0.00;;;;;;;;5021753;28;9576;-76
2023/02/18 05:39:11;;;;;;;;;0.00;0.00;;;;;;;;5025675;28;9727;-78
2023/02/18 05:41:39;;;;;;;;;0.00;0.00;;;;;;;;5023425;28;9468;-76
2023/02/18 05:46:51;;;;;;;;;0.00;0.00;;;;;;;;5047699;28;9395;-76
2023/02/18 05:49:18;;;;;;;;;0.00;0.00;;;;;;;;5023152;28;9276;-77
2023/02/18 05:51:46;;;;;;;;;0.00;0.00;;;;;;;;5028021;28;9401;-76
2023/02/18 05:54:15;;;;;;;;;0.00;0.00;;;;;;;;5041796;28;9491;-75
2023/02/18 05:56:42;;;;;;;;;0.00;0.00;;;;;;;;5047369;28;9389;-77
2023/02/18 05:59:10;;;;;;;;;0.00;0.00;;;;;;;;5048823;28;9326;-75
2023/02/18 06:01:38;;;;;;;;;0.00;0.00;;;;;;;;5007717;28;9313;-79
2023/02/18 06:04:05;;;;;;;;;0.00;0.00;;;;;;;;5046952;28;9374;-77
2023/02/18 06:06:33;;;;;;;;;0.00;0.00;;;;;;;;5037491;28;9251;-77
2023/02/18 06:09:02;;;;;;;;;0.00;0.00;;;;;;;;5020624;28;9384;-77
2023/02/18 06:11:31;;;;;;;;;0.67;0.00;;;;;;;;5019815;28;9398;-72
2023/02/18 06:13:59;;;;;;;;;2.00;0.00;;;;;;;;5020028;28;9468;-72
2023/02/18 06:16:28;;;;;;;;;0.00;0.00;;;;;;;;5040400;28;9426;-73
2023/02/18 06:18:55;;;;;;;;;0.00;0.00;;;;;;;;5046138;28;9301;-73
2023/02/18 06:21:23;;;;;;;;;1.00;0.00;;;;;;;;5044297;28;9321;-72
2023/02/18 06:23:50;;;;;;;;;0.00;0.00;;;;;;;;5047504;28;9406;-73
2023/02/18 06:26:18;;;;;;;;;0.00;0.00;;;;;;;;5039012;28;9355;-72
2023/02/18 06:28:47;;;;;;;;;0.00;0.00;;;;;;;;5040746;28;9411;-72
2023/02/18 06:31:14;;;;;;;;;0.00;0.00;;;;;;;;5036517;28;9346;-72
2023/02/18 06:33:42;;;;;;;;;0.00;0.00;;;;;;;;5035057;28;9395;-73
2023/02/18 06:36:11;;;;;;;;;0.00;0.00;;;;;;;;5017587;28;9418;-74
2023/02/18 06:38:39;;;;;;;;;2.00;0.67;;;;;;;;5041688;28;9425;-72
2023/02/18 06:41:07;;;;;;;;;0.33;0.33;;;;;;;;5044466;28;9407;-73
2023/02/18 06:43:35;;;;;;;;;0.00;0.00;;;;;;;;5023974;28;10259;-72
2023/02/18 06:46:04;;;;;;;;;0.00;0.00;;;;;;;;5041463;28;9386;-72
2023/02/18 06:48:31;;;;;;;;;0.33;0.33;;;;;;;;5023713;28;9332;-75
2023/02/18 06:50:59;;;;;;;;;0.00;0.00;;;;;;;;5022362;28;9420;-73
2023/02/18 06:53:27;;;;;;;;;1.00;0.00;;;;;;;;5040972;28;9312;-73
2023/02/18 06:55:54;;;;;;;;;0.00;0.00;;;;;;;;5037144;28;9634;-72
2023/02/18 06:58:22;;;;;;;;;0.00;0.00;;;;;;;;5043904;28;9268;-73
2023/02/18 07:00:50;;;;;;;;;0.00;0.00;;;;;;;;5039965;28;9390;-74
2023/02/18 07:03:19;;;;;;;;;1.00;0.00;;;;;;;;5040403;28;9232;-73
2023/02/18 07:05:46;;;;;;;;;0.00;0.00;;;;;;;;5039796;28;9263;-73
2023/02/18 07:08:14;;;;;;;;;0.00;0.00;;;;;;;;5043130;28;10101;-73
2023/02/18 07:10:42;;;;;;;;;0.00;0.00;;;;;;;;5041110;28;10137;-72
2023/02/18 07:13:09;;;;;;;;;0.00;0.00;;;;;;;;5045773;28;9345;-74
2023/02/18 07:15:36;;;;;;;;;0.33;0.00;;;;;;;;5004417;28;9484;-74
2023/02/18 07:18:04;;;;;;;;;0.00;0.00;;;;;;;;5044600;28;9384;-74
2023/02/18 07:20:34;;;;;;;;;0.00;0.00;;;;;;;;5020027;28;9379;-75
2023/02/18 07:23:02;;;;;;;;;0.00;0.00;;;;;;;;5022889;28;9455;-75
2023/02/18 07:25:30;;;;;;;;;0.67;0.67;;;;;;;;5040205;28;9406;-75
2023/02/18 07:27:57;;;;;;;;;1.00;0.00;;;;;;;;5041826;28;9396;-74
2023/02/18 07:30:25;;;;;;;;;0.00;0.00;;;;;;;;5041033;28;9255;-74
2023/02/18 07:32:52;;;;;;;;;0.00;0.00;;;;;;;;5037199;28;9251;-73
2023/02/18 07:35:21;;;;;;;;;0.00;0.00;;;;;;;;5028809;28;9295;-74
2023/02/18 07:37:51;;;;;;;;;1.00;0.00;;;;;;;;5045081;28;9247;-74
2023/02/18 07:40:20;;;;;;;;;2.00;0.00;;;;;;;;5043431;28;9229;-73
2023/02/18 07:42:48;;;;;;;;;0.00;0.00;;;;;;;;5035752;28;10112;-73
2023/02/18 07:45:16;;;;;;;;;0.00;0.00;;;;;;;;5037187;28;9386;-71
2023/02/18 07:47:44;;;;;;;;;0.00;0.00;;;;;;;;5037491;28;9458;-71
2023/02/18 07:50:12;;;;;;;;;2.00;0.00;;;;;;;;5021923;28;9355;-72
2023/02/18 07:52:41;;;;;;;;;0.00;0.00;;;;;;;;5042802;28;9441;-69
2023/02/18 07:55:11;;;;;;;;;0.00;0.00;;;;;;;;5045947;28;9248;-72
2023/02/18 07:57:56;;;;;;;;;0.00;0.00;;;;;;;;5045370;28;9282;-72
2023/02/18 08:00:24;;;;;;;;;0.00;0.00;;;;;;;;5043155;28;9220;-72
2023/02/18 08:02:52;;;;;;;;;0.00;0.00;;;;;;;;5043516;28;9258;-72
2023/02/18 08:05:22;;;;;;;;;0.00;0.00;;;;;;;;5046036;28;9158;-72
2023/02/18 08:07:50;;;;;;;;;0.00;0.00;;;;;;;;5042895;28;9276;-71
2023/02/18 08:10:18;;;;;;;;;1.00;0.00;;;;;;;;5049517;28;9268;-72
2023/02/18 08:12:46;;;;;;;;;0.00;0.00;;;;;;;;5025868;28;9333;-72
2023/02/18 08:15:14;;;;;;;;;0.00;0.00;;;;;;;;5028979;28;10055;-73
2023/02/18 08:17:41;;;;;;;;;0.00;0.00;;;;;;;;5027253;28;9251;-71
2023/02/18 08:20:09;;;;;;;;;1.00;1.00;;;;;;;;5030722;28;9255;-71
2023/02/18 08:22:39;;;;;;;;;0.00;0.00;;;;;;;;5050884;28;9273;-71
2023/02/18 08:25:07;;;;;;;;;0.00;0.00;;;;;;;;5042620;28;9369;-71
2023/02/18 08:27:36;;;;;;;;;2.00;0.00;;;;;;;;5052549;28;9333;-71
2023/02/18 08:30:04;;;;;;;;;0.67;0.67;;;;;;;;5047415;28;9189;-70
2023/02/18 08:32:31;;;;;;;;;0.00;0.00;;;;;;;;5045292;28;9257;-70
2023/02/18 08:34:59;;;;;;;;;1.00;1.00;;;;;;;;5042023;28;9175;-70
2023/02/18 08:37:27;;;;;;;;;2.00;0.00;;;;;;;;5038233;28;9319;-70
2023/02/18 08:39:54;;;;;;;;;1.67;0.00;;;;;;;;5025894;28;9334;-70
2023/02/18 08:42:21;;;;;;;;;0.00;0.00;;;;;;;;5040065;28;9179;-70
2023/02/18 08:44:50;;;;;;;;;0.00;0.00;;;;;;;;5042482;28;9258;-71
2023/02/18 08:47:18;;;;;;;;;1.00;1.00;;;;;;;;5023638;28;9282;-71
2023/02/18 08:49:45;;;;;;;;;1.00;1.00;;;;;;;;5040569;28;9300;-70
2023/02/18 08:52:13;;;;;;;;;1.00;1.00;;;;;;;;5029198;28;9366;-70
2023/02/18 08:54:40;;;;;;;;;0.33;0.33;;;;;;;;5047602;28;9394;-70
2023/02/18 08:57:08;;;;;;;;;0.00;0.00;;;;;;;;5046730;28;9496;-70
2023/02/18 08:59:35;;;;;;;;;1.00;1.00;;;;;;;;5022191;28;9286;-71
2023/02/18 09:02:04;;;;;;;;;3.33;1.00;;;;;;;;5016684;28;9242;-70
2023/02/18 09:04:32;;;;;;;;;0.67;0.67;;;;;;;;5019505;28;9065;-70
2023/02/18 09:06:59;;;;;;;;;2.00;1.00;;;;;;;;5046136;28;9145;-71
2023/02/18 09:09:26;;;;;;;;;0.00;0.00;;;;;;;;5037949;28;9271;-70
2023/02/18 09:11:54;;;;;;;;;0.00;0.00;;;;;;;;5038105;28;9105;-74
2023/02/18 09:14:22;;;;;;;;;1.00;1.00;;;;;;;;5042138;28;9093;-70
2023/02/18 09:16:50;;;;;;;;;1.00;1.00;;;;;;;;5039925;28;9241;-70
2023/02/18 09:19:19;;;;;;;;;1.00;1.00;;;;;;;;5043672;28;9320;-70
2023/02/18 09:21:46;;;;;;;;;1.00;1.00;;;;;;;;5049975;28;9175;-69
2023/02/18 09:24:14;;;;;;;;;2.00;0.67;;;;;;;;5047612;28;9086;-71
2023/02/18 09:26:41;;;;;;;;;0.00;0.00;;;;;;;;5046225;28;9126;-71
2023/02/18 09:29:09;;;;;;;;;1.00;1.00;;;;;;;;5046844;28;9091;-71
2023/02/18 09:31:37;;;;;;;;;1.00;1.00;;;;;;;;5041305;28;9040;-71
2023/02/18 09:34:05;;;;;;;;;1.00;1.00;;;;;;;;5039350;28;10346;-71
2023/02/18 09:36:34;;;;;;;;;0.67;0.67;;;;;;;;5042776;28;9109;-71
2023/02/18 09:39:01;;;;;;;;;0.00;0.00;;;;;;;;5039534;28;9148;-71
2023/02/18 09:41:35;;;;;;;;;0.00;0.00;;;;;;;;5044907;28;8996;-71
2023/02/18 09:44:05;;;;;;;;;1.00;1.00;;;;;;;;5043294;28;9078;-71
2023/02/18 09:46:34;;;;;;;;;0.00;0.00;;;;;;;;5046785;28;9207;-70
2023/02/18 09:49:04;;;;;;;;;0.00;0.00;;;;;;;;5042980;28;9091;-71
2023/02/18 09:51:33;;;;;;;;;3.33;1.00;;;;;;;;5024296;28;8999;-71
2023/02/18 09:54:01;;;;;;;;;0.67;0.67;;;;;;;;5043946;28;9010;-71
2023/02/18 09:56:33;;;;;;;;;1.00;1.00;;;;;;;;5044981;28;9010;-71
2023/02/18 09:59:04;;;;;;;;;1.00;1.00;;;;;;;;5049844;28;9291;-71
2023/02/18 10:01:34;;;;;;;;;2.00;2.00;;;;;;;;5046989;28;9032;-71
2023/02/18 10:04:04;;;;;;;;;1.00;1.00;;;;;;;;5027375;28;9081;-71
2023/02/18 10:06:35;;;;;;;;;1.67;1.00;;;;;;;;5023357;28;8940;-71
2023/02/18 10:09:05;;;;;;;;;1.00;1.00;;;;;;;;5025652;28;9011;-72
2023/02/18 10:11:38;;;;;;;;;1.00;1.00;;;;;;;;5041793;28;9091;-71
2023/02/18 10:14:11;;;;;;;;;2.00;2.00;;;;;;;;5035851;28;9103;-73
2023/02/18 10:16:38;;;;;;;;;0.00;0.00;;;;;;;;5037934;28;9176;-72
2023/02/18 10:19:14;;;;;;;;;1.75;0.50;;;;;;;;5036603;28;9101;-73
2023/02/18 10:21:43;;;;;;;;;0.67;0.00;;;;;;;;5037470;28;8869;-72
2023/02/18 10:24:30;;;;;;;;;1.00;1.00;;;;;;;;5040102;28;8961;-75
2023/02/18 10:26:57;;;;;;;;;0.67;0.67;;;;;;;;5036290;28;9686;-72
2023/02/18 10:29:26;;;;;;;;;1.00;1.00;;;;;;;;5037940;28;9089;-71
2023/02/18 10:31:56;;;;;;;;;1.00;1.00;;;;;;;;5038015;28;8903;-71
2023/02/18 10:34:37;;;;;;;;;0.00;0.00;;;;;;;;5036715;28;9103;-71
2023/02/18 10:37:15;;;;;;;;;2.67;1.00;;;;;;;;5019304;28;8948;-72
2023/02/18 10:39:52;;;;;;;;;1.00;1.00;;;;;;;;5036817;28;8928;-71
2023/02/18 10:42:28;;;;;;;;;1.00;1.00;;;;;;;;5037704;28;9014;-72
2023/02/18 10:45:03;;;;;;;;;0.75;0.75;;;;;;;;5037013;28;8955;-71
2023/02/18 10:47:39;;;;;;;;;1.00;1.00;;;;;;;;5038087;28;8941;-71
2023/02/18 10:50:11;;;;;;;;;1.67;1.67;;;;;;;;5018211;28;9023;-71
2023/02/18 10:52:43;;;;;;;;;1.00;1.00;;;;;;;;5032021;28;9033;-71
2023/02/18 10:55:14;;;;;;;;;1.33;1.33;;;;;;;;5016858;28;9038;-71
2023/02/18 10:57:49;;;;;;;;;3.00;2.00;;;;;;;;5038652;28;9033;-74
2023/02/18 11:00:22;;;;;;;;;1.00;1.00;;;;;;;;5021121;28;8953;-72
2023/02/18 11:03:12;;;;;;;;;1.00;1.00;;;;;;;;5034921;28;8998;-73
2023/02/18 11:05:40;;;;;;;;;1.00;1.00;;;;;;;;5036285;28;9002;-73
2023/02/18 11:08:11;;;;;;;;;2.33;1.00;;;;;;;;5036988;28;9034;-73
2023/02/18 11:10:42;;;;;;;;;0.33;0.33;;;;;;;;5018077;28;8942;-73
2023/02/18 11:13:12;;;;;;;;;1.33;1.00;;;;;;;;5020467;28;8924;-72
2023/02/18 11:15:55;;;;;;;;;2.00;2.00;;;;;;;;5034044;28;9776;-72
2023/02/18 11:18:37;;;;;;;;;0.00;0.00;;;;;;;;5034127;28;9098;-73
2023/02/18 11:21:07;;;;;;;;;2.00;2.00;;;;;;;;5028666;28;9048;-76
2023/02/18 11:23:47;;;;;;;;;1.00;1.00;;;;;;;;5041607;28;10000;-71
2023/02/18 11:26:25;;;;;;;;;1.00;1.00;;;;;;;;5039327;28;9265;-72
2023/02/18 11:28:58;;;;;;;;;0.00;0.00;;;;;;;;5042511;28;9011;-73
2023/02/18 11:31:27;;;;;;;;;2.00;2.00;;;;;;;;5021141;28;8948;-71
2023/02/18 11:33:57;;;;;;;;;5.00;3.00;;;;;;;;5048099;28;9003;-71
2023/02/18 11:36:28;;;;;;;;;3.67;3.67;;;;;;;;5040168;28;9002;-71
2023/02/18 11:38:58;;;;;;;;;2.67;2.67;;;;;;;;5039373;28;9101;-72
2023/02/18 11:41:32;;;;;;;;;2.33;2.33;;;;;;;;5040111;28;8913;-71
2023/02/18 11:44:00;;;;;;;;;2.00;2.00;;;;;;;;5043762;28;8929;-70
2023/02/18 11:46:28;;;;;;;;;3.00;1.00;;;;;;;;5044048;28;9692;-71
2023/02/18 11:48:56;;;;;;;;;0.00;0.00;;;;;;;;5038676;28;8870;-71
2023/02/18 11:51:26;;;;;;;;;1.00;1.00;;;;;;;;5037560;28;8857;-70
2023/02/18 11:54:00;;;;;;;;;1.75;1.75;;;;;;;;5041570;28;8859;-71
2023/02/18 11:56:29;;;;;;;;;2.00;2.00;;;;;;;;5039876;28;8871;-71
2023/02/18 11:58:58;;;;;;;;;1.75;1.00;;;;;;;;5040485;28;8858;-71
2023/02/18 12:01:39;;;;;;;;;6.00;1.50;;;;;;;;5039606;28;9609;-71
2023/02/18 12:04:12;;;;;;;;;4.00;2.00;;;;;;;;5040794;28;8847;-73
2023/02/18 12:06:43;;;;;;;;;3.00;1.00;;;;;;;;5042256;28;8985;-73
2023/02/18 12:09:20;;;;;;;;;2.50;1.00;;;;;;;;5048594;28;8846;-72
2023/02/18 12:11:51;;;;;;;;;2.00;2.00;;;;;;;;5038294;28;8869;-71
2023/02/18 12:14:20;;;;;;;;;2.50;1.00;;;;;;;;5043566;28;8842;-70
2023/02/18 12:17:02;;;;;;;;;3.25;1.00;;;;;;;;5040124;28;8852;-71
2023/02/18 12:19:49;;;;;;;;;1.25;1.00;;;;;;;;5045511;28;9604;-71
2023/02/18 12:22:20;;;;;;;;;0.50;0.50;;;;;;;;5046642;28;9662;-71
2023/02/18 12:25:03;;;;;;;;;2.00;1.00;;;;;;;;5039653;28;9867;-70
2023/02/18 12:27:38;;;;;;;;;2.25;1.25;;;;;;;;5021798;28;9621;-71
2023/02/18 12:30:38;;;;;;;;;0.75;0.75;;;;;;;;5039837;28;8901;-72
2023/02/18 12:33:12;;;;;;;;;1.00;1.00;;;;;;;;5042640;28;8879;-72
2023/02/18 12:35:56;;;;;;;;;1.00;1.00;;;;;;;;5045393;28;8848;-72
2023/02/18 12:39:00;;;;;;;;;1.00;1.00;;;;;;;;5045427;28;9221;-71
2023/02/18 12:41:45;;;;;;;;;1.00;1.00;;;;;;;;5045048;28;8932;-71
2023/02/18 12:44:32;;;;;;;;;1.50;1.00;;;;;;;;5028448;28;8855;-71
2023/02/18 12:47:12;;;;;;;;;0.25;0.25;;;;;;;;5043467;28;8866;-71
2023/02/18 12:50:04;;;;;;;;;0.00;0.00;;;;;;;;5045249;28;8858;-71
2023/02/18 12:52:40;;;;;;;;;0.25;0.25;;;;;;;;5040828;28;8850;-71
2023/02/18 12:55:27;;;;;;;;;1.00;1.00;;;;;;;;5046550;28;8889;-71
2023/02/18 12:58:06;;;;;;;;;0.00;0.00;;;;;;;;5048907;28;8846;-71
2023/02/18 13:00:54;;;;;;;;;0.75;0.75;;;;;;;;5043513;28;8773;-71
2023/02/18 13:03:47;;;;;;;;;2.00;1.00;;;;;;;;5035899;28;8885;-71
2023/02/18 13:06:25;;;;;;;;;1.00;1.00;;;;;;;;5021256;28;8864;-71
2023/02/18 13:09:03;;;;;;;;;1.00;1.00;;;;;;;;5043216;28;8865;-71
2023/02/18 13:11:39;;;;;;;;;2.00;2.00;;;;;;;;5037973;28;9645;-71
2023/02/18 13:14:13;;;;;;;;;1.00;1.00;;;;;;;;5044926;28;8848;-71
2023/02/18 13:16:44;;;;;;;;;2.75;1.00;;;;;;;;5026876;28;9667;-70
2023/02/18 13:19:20;;;;;;;;;0.00;0.00;;;;;;;;5039273;28;8882;-71
2023/02/18 13:21:50;;;;;;;;;1.00;1.00;;;;;;;;5044451;28;8989;-71
2023/02/18 13:24:26;;;;;;;;;1.75;0.25;;;;;;;;5021705;28;8874;-71
2023/02/18 13:26:57;;;;;;;;;0.50;0.50;;;;;;;;5038186;28;8856;-71
2023/02/18 13:29:33;;;;;;;;;1.00;1.00;;;;;;;;5045599;28;8880;-71
2023/02/18 13:32:09;;;;;;;;;1.75;1.00;;;;;;;;5039116;28;8838;-72
2023/02/18 13:34:42;;;;;;;;;1.00;1.00;;;;;;;;5024624;28;9030;-71
2023/02/18 13:37:18;;;;;;;;;1.75;1.00;;;;;;;;5039592;28;9640;-72
2023/02/18 13:39:50;;;;;;;;;1.00;1.00;;;;;;;;5043263;28;8833;-72
2023/02/18 13:42:35;;;;;;;;;1.50;0.75;;;;;;;;5037485;28;8852;-71
2023/02/18 13:45:25;;;;;;;;;1.00;1.00;;;;;;;;5040587;28;8855;-71
2023/02/18 13:47:53;;;;;;;;;1.50;1.00;;;;;;;;5046939;28;8834;-70
2023/02/18 13:50:43;;;;;;;;;1.25;1.25;;;;;;;;5041956;28;8965;-71
2023/02/18 13:53:23;;;;;;;;;1.50;1.50;;;;;;;;5040311;28;8865;-71
2023/02/18 13:56:00;;;;;;;;;3.00;3.00;;;;;;;;5036530;28;8864;-70
2023/02/18 13:58:32;;;;;;;;;3.00;2.00;;;;;;;;5042514;28;8895;-70
2023/02/18 14:01:04;;;;;;;;;3.00;1.50;;;;;;;;5046338;28;8809;-71
2023/02/18 14:03:37;;;;;;;;;1.25;1.25;;;;;;;;5047165;28;8845;-71
2023/02/18 14:06:15;;;;;;;;;1.00;1.00;;;;;;;;5041030;28;8912;-71
2023/02/18 14:08:43;;;;;;;;;2.75;2.00;;;;;;;;5039216;28;8856;-71
2023/02/18 14:11:35;;;;;;;;;1.50;1.50;;;;;;;;5041159;28;8948;-70
2023/02/18 14:14:34;;;;;;;;;1.00;1.00;;;;;;;;5044301;28;8859;-70
2023/02/18 14:17:34;;;;;;;;;1.00;1.00;;;;;;;;5041535;28;8851;-70
2023/02/18 14:20:31;;;;;;;;;1.00;1.00;;;;;;;;4990346;28;8884;-71
2023/02/18 14:22:59;;;;;;;;;3.00;1.75;;;;;;;;5042684;28;8843;-70
2023/02/18 14:25:35;;;;;;;;;2.00;2.00;;;;;;;;5040424;28;8898;-70
2023/02/18 14:28:04;;;;;;;;;2.00;2.00;;;;;;;;5045133;28;8879;-71
2023/02/18 14:30:38;;;;;;;;;1.00;1.00;;;;;;;;5046806;28;8798;-70
2023/02/18 14:33:13;;;;;;;;;1.25;1.25;;;;;;;;5040152;28;8929;-71
2023/02/18 14:35:44;;;;;;;;;1.50;1.50;;;;;;;;5040984;28;8856;-71
2023/02/18 14:38:38;;;;;;;;;1.00;1.00;;;;;;;;5043560;28;8846;-72
2023/02/18 14:41:30;;;;;;;;;1.00;1.00;;;;;;;;5020234;28;8859;-71
2023/02/18 14:44:16;;;;;;;;;3.00;3.00;;;;;;;;5037956;28;8861;-71
2023/02/18 14:46:56;;;;;;;;;1.75;1.75;;;;;;;;5045409;28;9011;-71
2023/02/18 14:49:36;;;;;;;;;4.00;2.00;;;;;;;;5044992;28;8916;-71
2023/02/18 14:52:05;;;;;;;;;4.50;1.75;;;;;;;;5035299;28;8865;-71
2023/02/18 14:54:33;;;;;;;;;2.00;2.00;;;;;;;;5039715;28;8844;-71
2023/02/18 14:57:04;;;;;;;;;2.25;2.25;;;;;;;;5025594;28;8873;-71
2023/02/18 14:59:35;;;;;;;;;3.00;3.00;;;;;;;;5042676;28;8836;-71
2023/02/18 15:02:03;;;;;;;;;2.00;2.00;;;;;;;;5043778;28;8841;-70
2023/02/18 15:04:32;;;;;;;;;2.50;2.50;;;;;;;;5038244;28;8851;-71
2023/02/18 15:07:01;;;;;;;;;4.00;2.00;;;;;;;;5042220;28;9766;-71
2023/02/18 15:09:28;;;;;;;;;1.25;1.25;;;;;;;;5039978;28;9073;-71
2023/02/18 15:11:59;;;;;;;;;1.00;1.00;;;;;;;;5048634;28;8838;-70
2023/02/18 15:14:29;;;;;;;;;1.00;1.00;;;;;;;;5038822;28;9554;-71
2023/02/18 15:16:57;;;;;;;;;2.25;2.00;;;;;;;;5038315;28;8887;-71
2023/02/18 15:19:27;;;;;;;;;2.00;2.00;;;;;;;;5043067;28;8835;-71
2023/02/18 15:21:57;;;;;;;;;1.00;1.00;;;;;;;;5041167;28;8851;-70
2023/02/18 15:24:27;;;;;;;;;1.00;1.00;;;;;;;;5019766;28;8857;-71
2023/02/18 15:26:57;;;;;;;;;2.00;2.00;;;;;;;;5037752;28;8973;-70